createdAt,value
2022-12-23T00:02:47.215Z,99847.69
2022-12-23T00:05:51.318Z,99845.84
2022-12-23T00:08:58.350Z,99859.47
2022-12-23T00:12:20.526Z,99845.66
2022-12-23T00:15:23.105Z,99853.81
2022-12-23T00:18:26.723Z,99845.66
2022-12-23T00:21:29.444Z,99850.81
2022-12-23T00:24:32.315Z,99854.63
2022-12-23T00:27:37.673Z,99841.81
2022-12-23T00:30:51.886Z,99852.41
2022-12-23T00:33:54.504Z,99848.03
2022-12-23T00:36:57.350Z,99848.41
2022-12-23T00:40:19.281Z,99843.47
2022-12-23T00:43:22.297Z,99843.00
2022-12-23T00:46:25.168Z,99831.47
2022-12-23T00:49:43.309Z,99835.06
2022-12-23T00:52:45.820Z,99828.66
2022-12-23T00:55:48.878Z,99831.03
2022-12-23T00:58:51.631Z,99828.00
2022-12-23T01:02:13.817Z,99829.66
2022-12-23T01:05:36.627Z,99834.88
2022-12-23T01:08:40.471Z,99835.06
2022-12-23T01:11:43.126Z,99831.84
2022-12-23T01:14:46.180Z,99828.75
2022-12-23T01:17:48.898Z,99826.25
2022-12-23T01:20:51.762Z,99823.13
2022-12-23T01:23:54.265Z,99823.88
2022-12-23T01:26:57.513Z,99813.59
2022-12-23T01:30:00.283Z,99822.59
2022-12-23T01:33:03.350Z,99810.06
2022-12-23T01:36:08.400Z,99809.78
2022-12-23T01:39:11.377Z,99803.34
2022-12-23T01:42:34.306Z,99804.25
2022-12-23T01:45:37.421Z,99807.38
2022-12-23T01:48:44.111Z,99792.56
2022-12-23T01:51:47.011Z,99793.75
2022-12-23T01:54:49.890Z,99793.22
2022-12-23T01:57:56.672Z,99789.13
2022-12-23T02:01:19.146Z,99785.16
2022-12-23T02:04:24.874Z,99789.47
2022-12-23T02:07:46.582Z,99776.97
2022-12-23T02:11:28.180Z,99781.28
2022-12-23T02:15:23.804Z,99773.13
2022-12-23T02:18:51.552Z,99771.41
2022-12-23T02:22:36.223Z,99762.75
2022-12-23T02:25:51.271Z,99752.75
2022-12-23T02:28:53.769Z,99763.69
2022-12-23T02:32:10.889Z,99763.59
2022-12-23T02:35:29.222Z,99763.69
2022-12-23T02:39:09.114Z,99755.84
2022-12-23T02:42:16.799Z,99759.31
2022-12-23T02:45:32.207Z,99748.09
2022-12-23T02:48:34.818Z,99747.94
2022-12-23T02:51:43.149Z,99745.50
2022-12-23T02:54:54.111Z,99758.97
2022-12-23T02:58:00.146Z,99746.75
2022-12-23T03:01:07.199Z,99750.47
2022-12-23T03:04:10.288Z,99742.06
2022-12-23T03:07:33.029Z,99763.59
2022-12-23T03:11:09.820Z,99762.31
2022-12-23T03:14:33.626Z,99767.34
2022-12-23T03:18:04.367Z,99754.81
2022-12-23T03:21:47.423Z,99768.44
2022-12-23T03:25:03.634Z,99762.22
2022-12-23T03:28:09.168Z,99751.69
2022-12-23T03:31:18.325Z,99762.97
2022-12-23T03:34:26.261Z,99762.63
2022-12-23T03:37:33.826Z,99745.44
2022-12-23T03:40:41.708Z,99750.37
2022-12-23T03:43:53.234Z,99753.12
2022-12-23T03:47:09.204Z,99748.41
2022-12-23T03:50:15.603Z,99743.25
2022-12-23T03:53:28.838Z,99744.88
2022-12-23T03:56:40.836Z,99741.94
2022-12-23T03:59:47.143Z,99740.50
2022-12-23T04:02:59.501Z,99738.03
2022-12-23T04:06:07.035Z,99751.16
2022-12-23T04:09:11.007Z,99758.06
2022-12-23T04:12:15.187Z,99747.63
2022-12-23T04:15:26.524Z,99746.00
2022-12-23T04:18:29.779Z,99734.53
2022-12-23T04:21:32.507Z,99728.94
2022-12-23T04:24:35.343Z,99739.66
2022-12-23T04:27:38.070Z,99719.59
2022-12-23T04:30:41.133Z,99713.22
2022-12-23T04:33:43.658Z,99720.63
2022-12-23T04:36:46.705Z,99720.03
2022-12-23T04:39:49.297Z,99728.13
2022-12-23T04:42:52.019Z,99727.09
2022-12-23T04:45:54.625Z,99727.28
2022-12-23T04:48:58.325Z,99722.88
2022-12-23T04:52:01.064Z,99735.84
2022-12-23T04:55:07.332Z,99743.59
2022-12-23T04:58:09.898Z,99740.75
2022-12-23T05:01:15.944Z,99738.12
2022-12-23T05:04:18.880Z,99738.47
2022-12-23T05:07:21.705Z,99738.84
2022-12-23T05:10:24.836Z,99735.56
2022-12-23T05:13:27.792Z,99733.59
2022-12-23T05:16:31.683Z,99736.97
2022-12-23T05:19:35.680Z,99738.19
2022-12-23T05:22:38.519Z,99737.88
2022-12-23T05:25:41.510Z,99747.84
2022-12-23T05:28:45.632Z,99740.56
2022-12-23T05:31:48.684Z,99737.44
2022-12-23T05:34:51.319Z,99738.97
2022-12-23T05:37:54.746Z,99734.59
2022-12-23T05:40:57.606Z,99741.13
2022-12-23T05:44:00.563Z,99740.66
2022-12-23T05:47:02.966Z,99728.88
2022-12-23T05:50:06.522Z,99719.84
2022-12-23T05:53:09.562Z,99732.00
2022-12-23T05:56:12.393Z,99729.31
2022-12-23T05:59:15.201Z,99736.06
2022-12-23T06:02:18.602Z,99749.84
2022-12-23T06:05:21.938Z,99760.44
2022-12-23T06:08:25.313Z,99761.38
2022-12-23T06:11:29.557Z,99778.81
2022-12-23T06:14:32.964Z,99788.25
2022-12-23T06:17:36.165Z,99767.16
2022-12-23T06:20:39.071Z,99754.69
2022-12-23T06:23:42.008Z,99748.50
2022-12-23T06:26:44.646Z,99753.38
2022-12-23T06:29:48.662Z,99759.59
2022-12-23T06:32:51.220Z,99754.59
2022-12-23T06:35:53.974Z,99754.91
2022-12-23T06:38:56.553Z,99748.78
2022-12-23T06:41:59.424Z,99751.53
2022-12-23T06:45:02.139Z,99753.03
2022-12-23T06:48:06.122Z,99746.03
2022-12-23T06:51:15.311Z,99727.19
2022-12-23T06:54:18.226Z,99729.34
2022-12-23T06:57:20.787Z,99741.28
2022-12-23T07:00:25.001Z,99752.38
2022-12-23T07:03:27.898Z,99762.59
2022-12-23T07:06:31.864Z,99774.66
2022-12-23T07:09:34.484Z,99772.53
2022-12-23T07:12:37.545Z,99775.59
2022-12-23T07:15:40.207Z,99794.03
2022-12-23T07:18:43.963Z,99796.56
2022-12-23T07:21:46.594Z,99795.00
2022-12-23T07:24:49.614Z,99812.88
2022-12-23T07:27:55.566Z,99817.66
2022-12-23T07:30:59.618Z,99807.69
2022-12-23T07:34:02.894Z,99804.53
2022-12-23T07:37:06.045Z,99798.22
2022-12-23T07:40:10.350Z,99781.72
2022-12-23T07:43:15.553Z,99771.13
2022-12-23T07:46:18.718Z,99774.66
2022-12-23T07:49:21.735Z,99777.03
2022-12-23T07:52:24.457Z,99776.28
2022-12-23T07:55:27.568Z,99781.78
2022-12-23T07:58:30.094Z,99771.44
2022-12-23T08:01:33.053Z,99784.06
2022-12-23T08:04:45.646Z,99776.53
2022-12-23T08:07:50.165Z,99777.09
2022-12-23T08:10:59.572Z,99774.28
2022-12-23T08:14:02.391Z,99775.59
2022-12-23T08:17:05.574Z,99763.97
2022-12-23T08:20:08.679Z,99763.03
2022-12-23T08:23:11.516Z,99757.47
2022-12-23T08:26:17.361Z,99751.72
2022-12-23T08:29:20.625Z,99755.38
2022-12-23T08:32:27.093Z,99771.87
2022-12-23T08:35:30.439Z,99772.97
2022-12-23T08:38:35.312Z,99756.13
2022-12-23T08:41:48.243Z,99759.44
2022-12-23T08:44:56.498Z,99755.19
2022-12-23T08:47:59.382Z,99743.56
2022-12-23T08:51:07.396Z,99744.81
2022-12-23T08:54:10.793Z,99757.34
2022-12-23T08:57:20.948Z,99761.34
2022-12-23T09:00:39.080Z,99753.44
2022-12-23T09:03:42.605Z,99738.22
2022-12-23T09:06:45.752Z,99729.91
2022-12-23T09:09:48.267Z,99705.22
2022-12-23T09:12:52.343Z,99692.81
2022-12-23T09:15:56.677Z,99701.75
2022-12-23T09:18:59.843Z,99717.66
2022-12-23T09:22:02.831Z,99724.81
2022-12-23T09:25:06.466Z,99725.28
2022-12-23T09:28:09.728Z,99727.84
2022-12-23T09:31:13.543Z,99728.19
2022-12-23T09:34:17.698Z,99740.00
2022-12-23T09:37:20.708Z,99734.16
2022-12-23T09:40:25.346Z,99733.84
2022-12-23T09:43:33.726Z,99746.19
2022-12-23T09:47:04.367Z,99739.72
2022-12-23T09:50:28.836Z,99725.50
2022-12-23T09:53:44.842Z,99725.13
2022-12-23T09:56:53.664Z,99701.16
2022-12-23T10:00:04.891Z,99694.41
2022-12-23T10:03:28.861Z,99707.69
2022-12-23T10:06:34.429Z,99715.88
2022-12-23T10:09:40.688Z,99724.41
2022-12-23T10:12:50.885Z,99715.47
2022-12-23T10:15:56.132Z,99704.13
2022-12-23T10:19:08.982Z,99682.81
2022-12-23T10:22:17.344Z,99661.97
2022-12-23T10:25:28.607Z,99662.53
2022-12-23T10:28:31.250Z,99668.47
2022-12-23T10:31:57.054Z,99676.97
2022-12-23T10:35:18.491Z,99671.69
2022-12-23T10:38:33.563Z,99674.53
2022-12-23T10:42:13.839Z,99655.88
2022-12-23T10:45:47.500Z,99655.63
2022-12-23T10:49:08.076Z,99643.75
2022-12-23T10:52:28.940Z,99640.47
2022-12-23T10:55:36.455Z,99634.41
2022-12-23T10:58:46.397Z,99630.72
2022-12-23T11:01:56.710Z,99628.09
2022-12-23T11:04:59.853Z,99625.94
2022-12-23T11:08:03.146Z,99628.81
2022-12-23T11:11:07.369Z,99633.78
2022-12-23T11:14:30.413Z,99643.34
2022-12-23T11:17:35.157Z,99646.38
2022-12-23T11:20:44.238Z,99640.31
2022-12-23T11:23:47.667Z,99626.09
2022-12-23T11:27:05.891Z,99637.78
2022-12-23T11:30:18.261Z,99628.03
2022-12-23T11:33:31.090Z,99625.16
2022-12-23T11:36:35.622Z,99627.41
2022-12-23T11:39:48.256Z,99625.97
2022-12-23T11:43:03.177Z,99623.97
2022-12-23T11:46:38.677Z,99629.84
2022-12-23T11:49:53.986Z,99625.31
2022-12-23T11:53:11.365Z,99636.91
2022-12-23T11:56:15.571Z,99639.62
2022-12-23T11:59:38.332Z,99643.78
2022-12-23T12:02:45.166Z,99649.28
2022-12-23T12:05:56.002Z,99654.06
2022-12-23T12:09:01.547Z,99657.16
2022-12-23T12:12:12.657Z,99654.34
2022-12-23T12:15:44.731Z,99651.97
2022-12-23T12:18:55.116Z,99657.91
2022-12-23T12:22:06.079Z,99654.72
2022-12-23T12:25:22.738Z,99651.88
2022-12-23T12:28:32.794Z,99648.44
2022-12-23T12:31:48.794Z,99650.31
2022-12-23T12:35:13.232Z,99653.56
2022-12-23T12:38:34.065Z,99655.63
2022-12-23T12:41:53.088Z,99645.44
2022-12-23T12:45:14.908Z,99641.34
2022-12-23T12:48:48.898Z,99642.09
2022-12-23T12:52:02.494Z,99642.00
2022-12-23T12:55:15.150Z,99635.47
2022-12-23T12:58:21.152Z,99634.97
2022-12-23T13:01:40.620Z,99644.91
2022-12-23T13:05:08.991Z,99642.84
2022-12-23T13:08:14.587Z,99649.03
2022-12-23T13:11:28.951Z,99654.59
2022-12-23T13:14:35.268Z,99654.44
2022-12-23T13:17:48.310Z,99660.31
2022-12-23T13:20:59.883Z,99662.12
2022-12-23T13:24:28.314Z,99645.28
2022-12-23T13:28:12.859Z,99657.03
2022-12-23T13:31:30.997Z,99652.91
2022-12-23T13:34:46.363Z,99649.63
2022-12-23T13:38:21.031Z,99643.84
2022-12-23T13:41:39.970Z,99650.59
2022-12-23T13:44:43.565Z,99646.75
2022-12-23T13:48:15.075Z,99645.59
2022-12-23T13:51:37.865Z,99651.00
2022-12-23T13:54:43.343Z,99650.00
2022-12-23T13:58:11.436Z,99662.00
2022-12-23T14:01:14.726Z,99642.87
2022-12-23T14:04:36.720Z,99657.16
2022-12-23T14:07:44.180Z,99651.00
2022-12-23T14:11:10.801Z,99650.81
2022-12-23T14:14:25.527Z,99656.25
2022-12-23T14:17:43.758Z,99657.09
2022-12-23T14:21:05.276Z,99659.09
2022-12-23T14:24:27.978Z,99651.47
2022-12-23T14:27:42.954Z,99653.06
2022-12-23T14:30:46.448Z,99667.59
2022-12-23T14:33:51.233Z,99671.69
2022-12-23T14:37:24.266Z,99666.44
2022-12-23T14:40:37.528Z,99666.22
2022-12-23T14:43:46.680Z,99669.47
2022-12-23T14:46:49.172Z,99670.94
2022-12-23T14:49:54.756Z,99676.31
2022-12-23T14:53:20.097Z,99672.78
2022-12-23T14:56:38.437Z,99667.88
2022-12-23T15:00:02.828Z,99676.16
2022-12-23T15:03:11.264Z,99671.53
2022-12-23T15:06:36.196Z,99669.12
2022-12-23T15:10:00.534Z,99674.06
2022-12-23T15:13:06.078Z,99679.38
2022-12-23T15:16:17.179Z,99689.81
2022-12-23T15:19:23.210Z,99679.63
2022-12-23T15:22:32.602Z,99685.88
2022-12-23T15:25:42.180Z,99693.03
2022-12-23T15:28:46.143Z,99705.94
2022-12-23T15:31:58.223Z,99709.66
2022-12-23T15:35:05.872Z,99694.47
2022-12-23T15:38:08.517Z,99689.50
2022-12-23T15:41:15.922Z,99686.88
2022-12-23T15:44:26.955Z,99687.91
2022-12-23T15:47:36.799Z,99685.72
2022-12-23T15:50:44.586Z,99680.06
2022-12-23T15:53:48.460Z,99689.63
2022-12-23T15:56:54.344Z,99684.00
2022-12-23T15:59:59.341Z,99686.78
2022-12-23T16:03:04.052Z,99682.31
2022-12-23T16:06:10.564Z,99670.09
2022-12-23T16:09:16.748Z,99665.87
2022-12-23T16:12:26.741Z,99675.75
2022-12-23T16:15:32.134Z,99694.50
2022-12-23T16:18:48.037Z,99700.97
2022-12-23T16:21:50.965Z,99703.25
2022-12-23T16:25:08.223Z,99695.13
2022-12-23T16:28:24.644Z,99692.19
2022-12-23T16:31:28.539Z,99686.88
2022-12-23T16:34:32.143Z,99683.78
2022-12-23T16:37:37.660Z,99683.78
2022-12-23T16:40:41.348Z,99685.03
2022-12-23T16:43:51.490Z,99682.34
2022-12-23T16:46:55.382Z,99689.19
2022-12-23T16:50:01.045Z,99676.59
2022-12-23T16:53:03.559Z,99679.78
2022-12-23T16:56:18.503Z,99683.31
2022-12-23T16:59:22.612Z,99673.06
2022-12-23T17:02:28.767Z,99670.47
2022-12-23T17:05:32.673Z,99661.28
2022-12-23T17:08:38.278Z,99662.03
2022-12-23T17:11:49.453Z,99662.88
2022-12-23T17:14:52.945Z,99667.16
2022-12-23T17:17:55.483Z,99668.47
2022-12-23T17:20:59.052Z,99667.97
2022-12-23T17:24:13.016Z,99669.62
2022-12-23T17:27:20.696Z,99670.72
2022-12-23T17:30:25.586Z,99668.34
2022-12-23T17:33:31.349Z,99664.59
2022-12-23T17:36:33.984Z,99662.72
2022-12-23T17:39:36.969Z,99671.28
2022-12-23T17:42:39.960Z,99664.16
2022-12-23T17:45:45.755Z,99653.34
2022-12-23T17:48:49.997Z,99654.25
2022-12-23T17:51:53.985Z,99660.03
2022-12-23T17:54:56.551Z,99667.13
2022-12-23T17:57:59.509Z,99664.16
2022-12-23T18:01:02.662Z,99665.34
2022-12-23T18:04:07.057Z,99664.06
2022-12-23T18:07:12.457Z,99676.44
2022-12-23T18:10:18.559Z,99664.25
2022-12-23T18:13:23.564Z,99662.50
2022-12-23T18:16:30.562Z,99661.00
2022-12-23T18:19:33.402Z,99662.09
2022-12-23T18:22:36.613Z,99655.47
2022-12-23T18:25:39.400Z,99648.75
2022-12-23T18:28:44.043Z,99637.75
2022-12-23T18:31:51.413Z,99644.09
2022-12-23T18:34:55.764Z,99653.47
2022-12-23T18:37:59.059Z,99649.72
2022-12-23T18:41:01.927Z,99652.34
2022-12-23T18:44:04.806Z,99659.09
2022-12-23T18:47:08.411Z,99657.81
2022-12-23T18:50:13.645Z,99655.53
2022-12-23T18:53:23.703Z,99660.41
2022-12-23T18:56:27.674Z,99663.63
2022-12-23T18:59:33.019Z,99670.63
2022-12-23T19:02:35.834Z,99685.78
2022-12-23T19:05:41.983Z,99675.88
2022-12-23T19:08:44.588Z,99676.56
2022-12-23T19:11:49.216Z,99670.34
2022-12-23T19:14:52.242Z,99677.94
2022-12-23T19:17:55.091Z,99682.53
2022-12-23T19:21:04.124Z,99681.81
2022-12-23T19:24:07.190Z,99682.25
2022-12-23T19:27:09.929Z,99701.88
2022-12-23T19:30:15.663Z,99680.56
2022-12-23T19:33:18.915Z,99687.28
2022-12-23T19:36:25.493Z,99699.50
2022-12-23T19:39:28.110Z,99703.84
2022-12-23T19:42:36.743Z,99710.38
2022-12-23T19:45:41.290Z,99698.38
2022-12-23T19:48:51.631Z,99697.16
2022-12-23T19:51:54.336Z,99698.47
2022-12-23T19:54:57.317Z,99696.13
2022-12-23T19:58:02.858Z,99701.28
2022-12-23T20:01:16.377Z,99708.28
2022-12-23T20:04:19.775Z,99710.38
2022-12-23T20:07:22.233Z,99704.56
2022-12-23T20:10:29.179Z,99707.59
2022-12-23T20:13:33.188Z,99704.56
2022-12-23T20:16:40.910Z,99720.88
2022-12-23T20:19:46.132Z,99723.22
2022-12-23T20:22:50.681Z,99716.41
2022-12-23T20:25:53.435Z,99710.38
2022-12-23T20:28:57.584Z,99701.19
2022-12-23T20:32:02.467Z,99703.56
2022-12-23T20:35:07.241Z,99692.97
2022-12-23T20:38:09.875Z,99695.38
2022-12-23T20:41:17.791Z,99686.66
2022-12-23T20:44:34.497Z,99680.09
2022-12-23T20:47:38.540Z,99672.22
2022-12-23T20:50:52.896Z,99670.91
2022-12-23T20:53:59.854Z,99660.94
2022-12-23T20:57:02.889Z,99658.41
2022-12-23T21:00:07.085Z,99658.31
2022-12-23T21:03:10.728Z,99645.13
2022-12-23T21:06:14.037Z,99644.41
2022-12-23T21:09:17.125Z,99652.06
2022-12-23T21:12:20.532Z,99654.97
2022-12-23T21:15:23.363Z,99662.47
2022-12-23T21:18:26.267Z,99664.53
2022-12-23T21:21:31.182Z,99665.41
2022-12-23T21:24:34.064Z,99659.56
2022-12-23T21:27:37.126Z,99656.56
2022-12-23T21:30:46.014Z,99655.91
2022-12-23T21:33:51.139Z,99650.34
2022-12-23T21:36:54.391Z,99643.16
2022-12-23T21:39:57.287Z,99632.94
2022-12-23T21:43:05.419Z,99633.41
2022-12-23T21:46:15.994Z,99635.72
2022-12-23T21:49:19.784Z,99622.25
2022-12-23T21:52:22.574Z,99617.00
2022-12-23T21:55:25.340Z,99622.09
2022-12-23T21:58:27.969Z,99609.22
2022-12-23T22:01:34.391Z,99616.31
2022-12-23T22:04:37.469Z,99613.78
2022-12-23T22:07:40.281Z,99617.25
2022-12-23T22:10:51.595Z,99614.81
2022-12-23T22:13:56.126Z,99614.66
2022-12-23T22:16:59.263Z,99606.56
2022-12-23T22:20:03.026Z,99594.25
2022-12-23T22:23:08.300Z,99577.00
2022-12-23T22:26:17.478Z,99562.91
2022-12-23T22:29:23.437Z,99551.41
2022-12-23T22:32:26.035Z,99541.03
2022-12-23T22:35:30.053Z,99532.81
2022-12-23T22:38:32.651Z,99535.44
2022-12-23T22:41:35.932Z,99543.81
2022-12-23T22:44:38.608Z,99539.06
2022-12-23T22:47:41.664Z,99537.00
2022-12-23T22:50:49.048Z,99533.75
2022-12-23T22:53:52.424Z,99538.50
2022-12-23T22:56:55.163Z,99532.50
2022-12-23T22:59:58.257Z,99529.34
2022-12-23T23:03:01.133Z,99516.41
2022-12-23T23:06:08.511Z,99525.34
2022-12-23T23:09:17.487Z,99513.03
2022-12-23T23:12:20.677Z,99516.94
2022-12-23T23:15:23.260Z,99516.59
2022-12-23T23:18:27.384Z,99521.53
2022-12-23T23:21:30.116Z,99525.53
2022-12-23T23:24:34.270Z,99529.56
2022-12-23T23:27:36.808Z,99531.91
2022-12-23T23:30:43.471Z,99529.81
2022-12-23T23:33:47.718Z,99531.91
2022-12-23T23:36:50.884Z,99528.69
2022-12-23T23:39:53.446Z,99542.81
2022-12-23T23:42:56.580Z,99558.84
2022-12-23T23:45:59.342Z,99557.16
2022-12-23T23:49:02.253Z,99548.12
2022-12-23T23:52:05.038Z,99539.25
2022-12-23T23:55:08.530Z,99508.53
2022-12-23T23:58:11.956Z,99526.09
